createdAt,value
2018-12-22T00:00:18.144Z,967.27
2018-12-22T00:02:22.297Z,967.22
2018-12-22T00:03:22.535Z,967.28
2018-12-22T00:05:26.702Z,967.21
2018-12-22T00:06:26.943Z,967.30
2018-12-22T00:08:31.094Z,967.01
2018-12-22T00:09:31.335Z,967.13
2018-12-22T00:11:35.509Z,967.06
2018-12-22T00:12:35.746Z,967.17
2018-12-22T00:14:28.854Z,967.18
2018-12-22T00:15:29.093Z,967.24
2018-12-22T00:17:33.244Z,967.06
2018-12-22T00:18:33.482Z,967.05
2018-12-22T00:20:37.658Z,966.96
2018-12-22T00:21:37.897Z,967.12
2018-12-22T00:23:42.045Z,967.23
2018-12-22T00:24:42.373Z,967.14
2018-12-22T00:26:46.455Z,967.22
2018-12-22T00:27:46.696Z,967.23
2018-12-22T00:29:50.868Z,967.16
2018-12-22T00:30:51.107Z,967.16
2018-12-22T00:32:55.262Z,967.20
2018-12-22T00:33:55.502Z,966.99
2018-12-22T00:35:59.672Z,967.21
2018-12-22T00:36:59.909Z,967.27
2018-12-22T00:39:04.062Z,967.32
2018-12-22T00:40:04.299Z,967.38
2018-12-22T00:42:08.475Z,967.35
2018-12-22T00:43:08.716Z,967.41
2018-12-22T00:45:12.890Z,967.36
2018-12-22T00:46:13.129Z,967.38
2018-12-22T00:48:17.282Z,967.51
2018-12-22T00:49:17.521Z,967.46
2018-12-22T00:51:21.694Z,967.47
2018-12-22T00:52:21.935Z,967.44
2018-12-22T00:54:15.020Z,967.38
2018-12-22T00:55:15.251Z,967.53
2018-12-22T00:57:19.428Z,967.51
2018-12-22T00:58:19.668Z,967.36
2018-12-22T01:00:23.822Z,967.62
2018-12-22T01:01:24.056Z,967.49
2018-12-22T01:03:28.235Z,967.49
2018-12-22T01:04:28.473Z,967.81
2018-12-22T01:06:32.645Z,967.61
2018-12-22T01:07:32.884Z,967.59
2018-12-22T01:09:37.110Z,967.62
2018-12-22T01:10:37.271Z,967.64
2018-12-22T01:12:41.443Z,967.60
2018-12-22T01:13:41.683Z,967.62
2018-12-22T01:15:45.855Z,967.76
2018-12-22T01:16:46.094Z,967.62
2018-12-22T01:18:50.250Z,967.69
2018-12-22T01:19:50.488Z,967.64
2018-12-22T01:21:54.662Z,967.78
2018-12-22T01:22:54.900Z,967.81
2018-12-22T01:24:47.979Z,967.72
2018-12-22T01:25:48.218Z,967.80
2018-12-22T01:27:52.392Z,967.91
2018-12-22T01:28:52.630Z,967.82
2018-12-22T01:30:56.819Z,967.76
2018-12-22T01:31:57.059Z,967.82
2018-12-22T01:34:01.207Z,967.64
2018-12-22T01:35:01.445Z,967.75
2018-12-22T01:37:05.616Z,967.67
2018-12-22T01:38:05.855Z,967.77
2018-12-22T01:40:10.006Z,967.78
2018-12-22T01:41:10.242Z,967.79
2018-12-22T01:43:14.413Z,967.84
2018-12-22T01:44:14.652Z,967.86
2018-12-22T01:46:18.824Z,967.81
2018-12-22T01:47:19.061Z,967.85
2018-12-22T01:49:23.212Z,967.80
2018-12-22T01:50:23.452Z,967.90
2018-12-22T01:52:27.623Z,967.84
2018-12-22T01:53:27.859Z,967.84
2018-12-22T01:55:32.011Z,967.83
2018-12-22T01:56:32.247Z,967.85
2018-12-22T01:58:36.421Z,967.89
2018-12-22T01:59:36.657Z,967.85
2018-12-22T02:01:40.830Z,967.95
2018-12-22T02:02:41.068Z,967.87
2018-12-22T02:04:34.148Z,967.88
2018-12-22T02:05:34.384Z,967.96
2018-12-22T02:07:38.557Z,967.90
2018-12-22T02:08:38.793Z,967.98
2018-12-22T02:10:42.945Z,968.02
2018-12-22T02:11:43.179Z,968.03
2018-12-22T02:13:47.351Z,967.89
2018-12-22T02:14:47.588Z,968.03
2018-12-22T02:16:51.761Z,967.85
2018-12-22T02:17:51.999Z,967.86
2018-12-22T02:19:56.151Z,967.69
2018-12-22T02:20:56.464Z,967.95
2018-12-22T02:23:00.564Z,967.76
2018-12-22T02:24:00.807Z,967.83
2018-12-22T02:26:04.960Z,967.71
2018-12-22T02:27:05.192Z,967.63
2018-12-22T02:29:09.360Z,967.80
2018-12-22T02:30:09.602Z,967.74
2018-12-22T02:32:13.774Z,967.63
2018-12-22T02:33:14.010Z,967.66
2018-12-22T02:35:18.159Z,967.80
2018-12-22T02:36:18.400Z,967.71
2018-12-22T02:38:22.571Z,967.78
2018-12-22T02:39:22.854Z,967.77
2018-12-22T02:41:27.000Z,967.66
2018-12-22T02:42:27.196Z,967.71
2018-12-22T02:44:20.295Z,967.80
2018-12-22T02:45:20.531Z,967.82
2018-12-22T02:47:24.703Z,967.84
2018-12-22T02:48:24.942Z,967.78
2018-12-22T02:50:29.090Z,967.66
2018-12-22T02:51:29.328Z,967.72
2018-12-22T02:53:33.503Z,967.53
2018-12-22T02:54:33.739Z,967.65
2018-12-22T02:56:37.898Z,967.69
2018-12-22T02:57:38.132Z,967.63
2018-12-22T02:59:42.311Z,967.65
2018-12-22T03:00:42.544Z,967.62
2018-12-22T03:02:46.720Z,967.55
2018-12-22T03:03:46.960Z,967.57
2018-12-22T03:05:51.111Z,967.55
2018-12-22T03:06:51.348Z,967.58
2018-12-22T03:08:55.521Z,967.57
2018-12-22T03:09:55.760Z,967.67
2018-12-22T03:11:59.909Z,967.56
2018-12-22T03:13:00.148Z,967.46
2018-12-22T03:15:04.323Z,967.50
2018-12-22T03:16:04.565Z,967.47
2018-12-22T03:18:08.734Z,967.43
2018-12-22T03:19:08.972Z,967.47
2018-12-22T03:21:13.119Z,967.46
2018-12-22T03:22:13.364Z,967.48
2018-12-22T03:24:06.463Z,967.34
2018-12-22T03:25:06.701Z,967.36
2018-12-22T03:27:10.860Z,967.45
2018-12-22T03:28:11.101Z,967.34
2018-12-22T03:30:15.271Z,967.22
2018-12-22T03:31:15.541Z,967.52
2018-12-22T03:33:19.845Z,967.36
2018-12-22T03:34:19.915Z,967.40
2018-12-22T03:36:24.066Z,967.50
2018-12-22T03:37:24.302Z,967.49
2018-12-22T03:39:28.479Z,967.55
2018-12-22T03:40:28.714Z,967.57
2018-12-22T03:42:32.867Z,967.51
2018-12-22T03:43:33.103Z,967.47
2018-12-22T03:45:37.272Z,967.44
2018-12-22T03:46:37.511Z,967.51
2018-12-22T03:48:41.683Z,967.53
2018-12-22T03:49:41.922Z,967.54
2018-12-22T03:51:46.078Z,967.45
2018-12-22T03:52:46.314Z,967.42
2018-12-22T03:54:39.415Z,967.47
2018-12-22T03:55:39.657Z,967.36
2018-12-22T03:57:43.806Z,967.29
2018-12-22T03:58:44.049Z,967.26
2018-12-22T04:00:48.222Z,967.51
2018-12-22T04:01:48.459Z,967.51
2018-12-22T04:03:52.615Z,967.31
2018-12-22T04:04:52.854Z,967.32
2018-12-22T04:06:57.034Z,967.32
2018-12-22T04:07:57.265Z,967.33
2018-12-22T04:10:01.446Z,967.09
2018-12-22T04:11:01.682Z,967.30
2018-12-22T04:13:05.841Z,967.25
2018-12-22T04:14:06.080Z,967.24
2018-12-22T04:16:10.256Z,967.17
2018-12-22T04:17:10.491Z,967.15
2018-12-22T04:19:14.637Z,967.18
2018-12-22T04:20:14.873Z,967.03
2018-12-22T04:22:19.048Z,967.10
2018-12-22T04:23:19.291Z,967.23
2018-12-22T04:25:23.472Z,967.13
2018-12-22T04:26:23.705Z,967.10
2018-12-22T04:28:27.854Z,967.21
2018-12-22T04:29:33.792Z,967.24
2018-12-22T04:31:32.268Z,967.11
2018-12-22T04:32:32.505Z,967.18
2018-12-22T04:34:25.661Z,967.20
2018-12-22T04:35:25.821Z,967.02
2018-12-22T04:37:29.998Z,967.04
2018-12-22T04:38:30.236Z,967.08
2018-12-22T04:40:34.415Z,967.19
2018-12-22T04:41:34.649Z,967.17
2018-12-22T04:43:38.803Z,967.20
2018-12-22T04:44:39.035Z,967.17
2018-12-22T04:46:43.209Z,967.18
2018-12-22T04:47:43.446Z,967.16
2018-12-22T04:49:47.630Z,967.50
2018-12-22T04:50:47.860Z,967.20
2018-12-22T04:52:52.032Z,967.26
2018-12-22T04:53:52.270Z,967.26
2018-12-22T04:55:56.438Z,967.17
2018-12-22T04:56:56.657Z,967.21
2018-12-22T04:59:00.827Z,967.00
2018-12-22T05:00:01.066Z,967.20
2018-12-22T05:02:05.216Z,967.11
2018-12-22T05:03:05.456Z,967.20
2018-12-22T05:05:09.631Z,967.21
2018-12-22T05:06:09.865Z,967.08
2018-12-22T05:08:14.038Z,967.13
2018-12-22T05:09:14.275Z,966.85
2018-12-22T05:11:18.487Z,967.20
2018-12-22T05:12:18.659Z,967.21
2018-12-22T05:14:11.761Z,967.22
2018-12-22T05:15:12.002Z,967.12
2018-12-22T05:17:16.151Z,967.18
2018-12-22T05:18:16.388Z,967.12
2018-12-22T05:20:20.586Z,967.26
2018-12-22T05:21:20.806Z,967.35
2018-12-22T05:23:24.976Z,967.16
2018-12-22T05:24:25.262Z,967.14
2018-12-22T05:26:29.365Z,967.19
2018-12-22T05:27:29.603Z,967.24
2018-12-22T05:29:33.777Z,967.15
2018-12-22T05:30:34.014Z,967.19
2018-12-22T05:32:38.167Z,967.28
2018-12-22T05:33:38.404Z,967.26
2018-12-22T05:35:42.585Z,967.14
2018-12-22T05:36:42.822Z,967.27
2018-12-22T05:38:46.993Z,967.23
2018-12-22T05:39:47.230Z,967.14
2018-12-22T05:41:51.377Z,967.24
2018-12-22T05:42:51.620Z,967.10
2018-12-22T05:44:44.714Z,967.12
2018-12-22T05:45:44.954Z,967.14
2018-12-22T05:47:49.104Z,967.03
2018-12-22T05:48:49.339Z,967.06
2018-12-22T05:50:53.512Z,967.12
2018-12-22T05:51:53.751Z,967.08
2018-12-22T05:53:57.921Z,967.12
2018-12-22T05:54:58.158Z,967.12
2018-12-22T05:57:02.308Z,967.05
2018-12-22T05:58:02.547Z,967.13
2018-12-22T06:00:06.724Z,966.98
2018-12-22T06:01:06.960Z,967.13
2018-12-22T06:03:11.110Z,967.17
2018-12-22T06:04:11.348Z,967.07
2018-12-22T06:06:15.522Z,966.91
2018-12-22T06:07:15.758Z,967.06
2018-12-22T06:09:19.930Z,966.97
2018-12-22T06:10:20.171Z,967.15
2018-12-22T06:12:24.320Z,967.07
2018-12-22T06:13:24.559Z,967.11
2018-12-22T06:15:28.733Z,967.04
2018-12-22T06:16:28.971Z,967.05
2018-12-22T06:18:33.144Z,967.13
2018-12-22T06:19:33.379Z,966.95
2018-12-22T06:21:37.529Z,967.06
2018-12-22T06:22:37.766Z,966.98
2018-12-22T06:24:30.869Z,967.21
2018-12-22T06:25:31.108Z,966.99
2018-12-22T06:27:35.257Z,967.00
2018-12-22T06:28:35.492Z,967.01
2018-12-22T06:30:39.667Z,967.10
2018-12-22T06:31:39.906Z,966.99
2018-12-22T06:33:44.080Z,967.18
2018-12-22T06:34:44.315Z,967.26
2018-12-22T06:36:48.466Z,967.04
2018-12-22T06:37:48.704Z,967.11
2018-12-22T06:39:52.873Z,967.18
2018-12-22T06:40:53.110Z,967.11
2018-12-22T06:42:57.260Z,967.18
2018-12-22T06:43:57.496Z,967.15
2018-12-22T06:46:01.664Z,967.11
2018-12-22T06:47:01.904Z,967.09
2018-12-22T06:49:06.075Z,966.97
2018-12-22T06:50:06.312Z,967.39
2018-12-22T06:52:10.463Z,967.32
2018-12-22T06:53:10.700Z,967.35
2018-12-22T06:55:14.871Z,967.39
2018-12-22T06:56:15.111Z,967.53
2018-12-22T06:58:19.260Z,967.52
2018-12-22T06:59:19.499Z,967.54
2018-12-22T07:01:23.665Z,967.28
2018-12-22T07:02:23.905Z,967.52
2018-12-22T07:04:17.003Z,967.59
2018-12-22T07:05:17.230Z,967.42
2018-12-22T07:07:21.396Z,967.66
2018-12-22T07:08:21.636Z,967.66
2018-12-22T07:10:25.806Z,967.65
2018-12-22T07:11:26.045Z,967.54
2018-12-22T07:13:30.187Z,967.49
2018-12-22T07:14:30.431Z,967.49
2018-12-22T07:16:34.604Z,967.49
2018-12-22T07:17:34.842Z,967.44
2018-12-22T07:19:39.014Z,967.46
2018-12-22T07:20:39.251Z,967.42
2018-12-22T07:22:43.399Z,967.57
2018-12-22T07:23:43.635Z,967.57
2018-12-22T07:25:47.812Z,967.57
2018-12-22T07:26:48.048Z,967.37
2018-12-22T07:28:52.198Z,967.55
2018-12-22T07:29:52.435Z,967.56
2018-12-22T07:31:56.604Z,967.45
2018-12-22T07:32:57.495Z,967.47
2018-12-22T07:34:49.946Z,967.60
2018-12-22T07:35:50.178Z,967.70
2018-12-22T07:37:54.326Z,967.63
2018-12-22T07:38:54.560Z,967.54
2018-12-22T07:40:58.734Z,967.48
2018-12-22T07:41:58.977Z,967.51
2018-12-22T07:44:03.124Z,967.67
2018-12-22T07:45:03.358Z,967.56
2018-12-22T07:47:07.532Z,967.70
2018-12-22T07:48:07.770Z,967.85
2018-12-22T07:50:11.951Z,967.68
2018-12-22T07:51:12.180Z,967.54
2018-12-22T07:53:16.329Z,967.70
2018-12-22T07:54:16.565Z,967.81
2018-12-22T07:56:20.735Z,967.89
2018-12-22T07:57:20.970Z,967.99
2018-12-22T07:59:25.140Z,967.94
2018-12-22T08:00:25.379Z,967.91
2018-12-22T08:02:29.531Z,967.98
2018-12-22T08:03:29.769Z,967.67
2018-12-22T08:05:38.692Z,967.88
2018-12-22T08:06:34.179Z,967.69
2018-12-22T08:08:38.419Z,967.90
2018-12-22T08:09:38.677Z,967.84
2018-12-22T08:11:42.737Z,968.14
2018-12-22T08:12:42.974Z,968.00
2018-12-22T08:14:36.072Z,968.13
2018-12-22T08:15:36.310Z,968.14
2018-12-22T08:17:40.461Z,968.19
2018-12-22T08:18:40.700Z,968.36
2018-12-22T08:20:44.872Z,968.29
2018-12-22T08:21:45.110Z,968.35
2018-12-22T08:23:49.257Z,968.43
2018-12-22T08:24:49.496Z,968.63
2018-12-22T08:26:53.667Z,968.40
2018-12-22T08:27:53.907Z,968.50
2018-12-22T08:29:58.075Z,968.63
2018-12-22T08:30:58.314Z,968.63
2018-12-22T08:33:02.460Z,968.40
2018-12-22T08:34:02.698Z,968.72
2018-12-22T08:36:06.866Z,968.66
2018-12-22T08:37:07.106Z,968.86
2018-12-22T08:39:11.258Z,968.70
2018-12-22T08:40:11.501Z,968.61
2018-12-22T08:42:15.671Z,969.09
2018-12-22T08:43:15.905Z,968.84
2018-12-22T08:45:20.084Z,968.94
2018-12-22T08:46:20.321Z,969.05
2018-12-22T08:48:24.469Z,969.03
2018-12-22T08:49:24.708Z,969.16
2018-12-22T08:51:28.878Z,969.22
2018-12-22T08:52:29.115Z,969.18
2018-12-22T08:54:22.193Z,969.00
2018-12-22T08:55:22.429Z,969.30
2018-12-22T08:57:26.597Z,969.69
2018-12-22T08:58:26.839Z,969.49
2018-12-22T09:00:31.008Z,969.46
2018-12-22T09:01:31.246Z,969.54
2018-12-22T09:03:35.437Z,969.65
2018-12-22T09:04:35.676Z,969.57
2018-12-22T09:06:39.855Z,969.61
2018-12-22T09:07:40.090Z,969.70
2018-12-22T09:09:44.238Z,969.89
2018-12-22T09:10:44.476Z,969.76
2018-12-22T09:12:48.665Z,969.77
2018-12-22T09:13:48.901Z,969.78
2018-12-22T09:15:53.077Z,969.78
2018-12-22T09:16:53.316Z,969.70
2018-12-22T09:18:57.471Z,969.77
2018-12-22T09:19:57.707Z,969.77
2018-12-22T09:22:01.885Z,969.74
2018-12-22T09:23:02.123Z,969.73
2018-12-22T09:25:06.282Z,969.65
2018-12-22T09:26:08.486Z,969.67
2018-12-22T09:28:10.695Z,969.61
2018-12-22T09:29:10.934Z,969.82
2018-12-22T09:31:16.128Z,969.85
2018-12-22T09:32:16.362Z,969.87
2018-12-22T09:34:13.417Z,969.83
2018-12-22T09:35:09.688Z,969.92
2018-12-22T09:37:13.869Z,969.95
2018-12-22T09:38:14.112Z,969.85
2018-12-22T09:40:18.273Z,969.88
2018-12-22T09:41:18.513Z,969.94
2018-12-22T09:43:22.693Z,970.04
2018-12-22T09:44:22.935Z,969.97
2018-12-22T09:46:27.123Z,970.24
2018-12-22T09:47:27.361Z,970.14
2018-12-22T09:49:31.518Z,970.19
2018-12-22T09:50:31.754Z,970.17
2018-12-22T09:52:35.931Z,970.23
2018-12-22T09:53:36.172Z,970.24
2018-12-22T09:55:40.350Z,970.29
2018-12-22T09:56:40.587Z,970.34
2018-12-22T09:58:44.740Z,970.37
2018-12-22T09:59:44.982Z,970.32
2018-12-22T10:01:49.163Z,970.43
2018-12-22T10:02:49.406Z,970.18
2018-12-22T10:04:42.488Z,970.53
2018-12-22T10:05:42.729Z,970.37
2018-12-22T10:07:46.913Z,970.40
2018-12-22T10:08:47.153Z,970.52
2018-12-22T10:10:51.333Z,970.40
2018-12-22T10:11:51.574Z,970.58
2018-12-22T10:13:55.724Z,970.54
2018-12-22T10:14:55.960Z,970.65
2018-12-22T10:17:00.134Z,970.73
2018-12-22T10:18:00.373Z,970.73
2018-12-22T10:20:04.525Z,970.64
2018-12-22T10:21:04.763Z,970.65
2018-12-22T10:23:08.937Z,970.83
2018-12-22T10:24:09.282Z,970.79
2018-12-22T10:26:13.385Z,970.61
2018-12-22T10:27:13.642Z,970.60
2018-12-22T10:29:17.816Z,970.70
2018-12-22T10:30:18.047Z,970.72
2018-12-22T10:32:22.254Z,970.87
2018-12-22T10:33:22.543Z,970.52
2018-12-22T10:35:26.728Z,970.78
2018-12-22T10:36:26.966Z,970.74
2018-12-22T10:38:31.160Z,970.82
2018-12-22T10:39:31.398Z,970.90
2018-12-22T10:41:35.602Z,970.86
2018-12-22T10:42:35.837Z,971.18
2018-12-22T10:44:28.915Z,970.95
2018-12-22T10:45:29.172Z,971.02
2018-12-22T10:47:33.355Z,970.85
2018-12-22T10:48:33.606Z,970.80
2018-12-22T10:50:37.773Z,970.79
2018-12-22T10:51:38.007Z,970.98
2018-12-22T10:53:42.230Z,970.91
2018-12-22T10:54:42.421Z,970.97
2018-12-22T10:56:46.598Z,970.92
2018-12-22T10:57:46.837Z,970.96
2018-12-22T10:59:50.985Z,971.05
2018-12-22T11:00:51.226Z,970.55
2018-12-22T11:02:55.401Z,971.06
2018-12-22T11:03:55.642Z,970.76
2018-12-22T11:05:59.794Z,971.12
2018-12-22T11:07:00.036Z,971.11
2018-12-22T11:09:04.210Z,971.21
2018-12-22T11:10:04.448Z,971.22
2018-12-22T11:12:08.628Z,971.14
2018-12-22T11:13:08.867Z,971.20
2018-12-22T11:15:13.050Z,971.32
2018-12-22T11:16:13.289Z,971.41
2018-12-22T11:18:17.462Z,971.43
2018-12-22T11:19:17.698Z,971.37
2018-12-22T11:21:21.870Z,971.22
2018-12-22T11:22:22.113Z,971.36
2018-12-22T11:24:15.194Z,971.35
2018-12-22T11:25:15.436Z,971.53
2018-12-22T11:27:19.614Z,971.50
2018-12-22T11:28:19.852Z,971.49
2018-12-22T11:30:24.012Z,971.55
2018-12-22T11:31:24.253Z,971.46
2018-12-22T11:33:28.428Z,971.57
2018-12-22T11:34:28.668Z,971.63
2018-12-22T11:36:32.852Z,971.76
2018-12-22T11:37:33.078Z,971.60
2018-12-22T11:39:37.240Z,971.69
2018-12-22T11:40:37.476Z,971.65
2018-12-22T11:42:47.628Z,971.68
2018-12-22T11:43:41.888Z,971.65
2018-12-22T11:45:46.038Z,971.51
2018-12-22T11:46:46.277Z,971.62
2018-12-22T11:48:50.451Z,971.69
2018-12-22T11:49:50.694Z,971.62
2018-12-22T11:51:54.874Z,971.83
2018-12-22T11:52:55.115Z,971.76
2018-12-22T11:54:48.203Z,971.45
2018-12-22T11:55:48.442Z,971.77
2018-12-22T11:57:52.613Z,971.74
2018-12-22T11:58:52.853Z,971.82
2018-12-22T12:00:57.008Z,971.91
2018-12-22T12:01:57.246Z,972.06
2018-12-22T12:04:01.425Z,971.85
2018-12-22T12:05:01.667Z,972.12
2018-12-22T12:07:05.839Z,972.07
2018-12-22T12:08:06.077Z,971.96
2018-12-22T12:10:10.234Z,972.31
2018-12-22T12:11:10.476Z,972.18
2018-12-22T12:13:14.648Z,972.15
2018-12-22T12:14:14.891Z,972.16
2018-12-22T12:16:19.050Z,972.39
2018-12-22T12:17:19.288Z,972.30
2018-12-22T12:19:23.462Z,972.48
2018-12-22T12:20:23.701Z,972.28
2018-12-22T12:22:27.887Z,972.21
2018-12-22T12:23:28.124Z,972.43
2018-12-22T12:25:32.279Z,972.42
2018-12-22T12:26:32.520Z,972.45
2018-12-22T12:28:36.698Z,972.60
2018-12-22T12:29:36.939Z,972.53
2018-12-22T12:31:41.095Z,972.68
2018-12-22T12:32:41.330Z,972.67
2018-12-22T12:34:34.431Z,972.54
2018-12-22T12:35:34.671Z,972.54
2018-12-22T12:37:38.844Z,972.67
2018-12-22T12:38:39.084Z,972.61
2018-12-22T12:40:43.240Z,972.65
2018-12-22T12:41:43.476Z,972.71
2018-12-22T12:43:47.656Z,972.80
2018-12-22T12:44:47.896Z,972.77
2018-12-22T12:46:52.047Z,972.90
2018-12-22T12:47:52.286Z,972.93
2018-12-22T12:49:56.521Z,972.89
2018-12-22T12:50:56.815Z,972.86
2018-12-22T12:53:09.424Z,972.81
2018-12-22T12:54:01.387Z,972.93
2018-12-22T12:56:05.581Z,972.86
2018-12-22T12:57:05.958Z,972.87
2018-12-22T12:59:10.300Z,972.90
2018-12-22T13:00:10.535Z,972.95
2018-12-22T13:02:14.807Z,972.96
2018-12-22T13:03:15.107Z,972.97
2018-12-22T13:05:19.473Z,972.86
2018-12-22T13:06:19.801Z,972.98
2018-12-22T13:08:24.977Z,973.14
2018-12-22T13:09:24.379Z,973.15
2018-12-22T13:11:28.692Z,973.09
2018-12-22T13:12:29.011Z,973.18
2018-12-22T13:14:22.233Z,973.21
2018-12-22T13:15:23.610Z,973.26
2018-12-22T13:17:26.797Z,973.19
2018-12-22T13:18:27.192Z,973.09
2018-12-22T13:20:32.170Z,973.22
2018-12-22T13:21:32.546Z,973.36
2018-12-22T13:23:37.927Z,973.26
2018-12-22T13:24:37.401Z,973.36
2018-12-22T13:26:41.942Z,973.26
2018-12-22T13:27:42.504Z,973.24
2018-12-22T13:29:35.283Z,973.24
2018-12-22T13:30:35.521Z,973.42
2018-12-22T13:32:39.679Z,973.47
2018-12-22T13:33:41.326Z,973.40
2018-12-22T13:35:44.385Z,973.46
2018-12-22T13:36:44.620Z,973.36
2018-12-22T13:38:48.974Z,973.44
2018-12-22T13:39:50.357Z,973.47
2018-12-22T13:41:54.020Z,973.39
2018-12-22T13:42:54.244Z,973.53
2018-12-22T13:44:49.981Z,973.67
2018-12-22T13:45:50.468Z,973.57
2018-12-22T13:47:55.092Z,973.62
2018-12-22T13:48:55.604Z,973.63
2018-12-22T13:50:59.913Z,973.62
2018-12-22T13:51:59.842Z,973.63
2018-12-22T13:54:04.019Z,973.78
2018-12-22T13:55:04.257Z,973.87
2018-12-22T13:57:08.440Z,973.70
2018-12-22T13:58:08.683Z,973.73
2018-12-22T14:00:12.858Z,973.81
2018-12-22T14:01:13.136Z,973.79
2018-12-22T14:03:17.294Z,973.89
2018-12-22T14:04:17.531Z,973.93
2018-12-22T14:06:21.723Z,973.83
2018-12-22T14:07:21.958Z,973.89
2018-12-22T14:09:26.229Z,973.87
2018-12-22T14:10:26.466Z,974.04
2018-12-22T14:12:30.628Z,974.02
2018-12-22T14:13:30.871Z,974.02
2018-12-22T14:15:35.127Z,974.03
2018-12-22T14:16:35.364Z,974.01
2018-12-22T14:18:39.564Z,974.07
2018-12-22T14:19:40.579Z,974.09
2018-12-22T14:21:43.967Z,974.11
2018-12-22T14:22:44.206Z,974.06
2018-12-22T14:24:37.322Z,973.98
2018-12-22T14:25:37.555Z,974.04
2018-12-22T14:27:41.714Z,974.04
2018-12-22T14:28:41.944Z,974.07
2018-12-22T14:30:46.123Z,974.06
2018-12-22T14:31:46.359Z,974.06
2018-12-22T14:33:50.512Z,974.04
2018-12-22T14:34:50.756Z,973.97
2018-12-22T14:36:54.922Z,974.01
2018-12-22T14:37:55.163Z,973.96
2018-12-22T14:39:59.333Z,974.00
2018-12-22T14:40:59.570Z,974.00
2018-12-22T14:43:03.719Z,974.17
2018-12-22T14:44:03.958Z,974.15
2018-12-22T14:46:08.129Z,974.03
2018-12-22T14:47:08.365Z,974.21
2018-12-22T14:49:12.524Z,974.25
2018-12-22T14:50:12.759Z,974.17
2018-12-22T14:52:16.929Z,974.12
2018-12-22T14:53:17.168Z,974.25
2018-12-22T14:55:21.342Z,974.22
2018-12-22T14:56:21.578Z,974.09
2018-12-22T14:58:25.728Z,974.24
2018-12-22T14:59:25.966Z,974.23
2018-12-22T15:01:30.142Z,974.12
2018-12-22T15:02:35.259Z,974.25
2018-12-22T15:04:23.452Z,974.23
2018-12-22T15:05:23.692Z,974.24
2018-12-22T15:07:27.865Z,974.33
2018-12-22T15:08:28.102Z,974.22
2018-12-22T15:10:32.277Z,974.20
2018-12-22T15:11:32.510Z,974.25
2018-12-22T15:13:36.662Z,974.29
2018-12-22T15:14:36.899Z,974.44
2018-12-22T15:16:41.070Z,974.36
2018-12-22T15:17:41.312Z,974.25
2018-12-22T15:19:45.457Z,974.40
2018-12-22T15:20:45.693Z,974.32
2018-12-22T15:22:49.864Z,974.38
2018-12-22T15:23:50.102Z,974.47
2018-12-22T15:25:54.282Z,974.50
2018-12-22T15:26:54.519Z,974.36
2018-12-22T15:28:58.669Z,974.43
2018-12-22T15:29:58.900Z,974.51
2018-12-22T15:32:03.578Z,974.50
2018-12-22T15:33:03.815Z,974.56
2018-12-22T15:35:07.966Z,974.59
2018-12-22T15:36:08.202Z,974.57
2018-12-22T15:38:12.376Z,974.66
2018-12-22T15:39:12.612Z,974.63
2018-12-22T15:41:16.779Z,974.56
2018-12-22T15:42:17.017Z,974.64
2018-12-22T15:44:10.094Z,974.74
2018-12-22T15:45:10.333Z,974.75
2018-12-22T15:47:14.507Z,974.82
2018-12-22T15:48:14.744Z,975.05
2018-12-22T15:50:18.897Z,974.79
2018-12-22T15:51:19.133Z,974.97
2018-12-22T15:53:23.313Z,974.98
2018-12-22T15:54:23.551Z,974.90
2018-12-22T15:56:27.725Z,975.20
2018-12-22T15:57:27.957Z,974.95
2018-12-22T15:59:32.110Z,975.02
2018-12-22T16:00:32.345Z,975.14
2018-12-22T16:02:36.515Z,975.12
2018-12-22T16:03:36.751Z,975.09
2018-12-22T16:05:40.924Z,975.21
2018-12-22T16:06:41.163Z,975.15
2018-12-22T16:08:45.339Z,975.24
2018-12-22T16:09:45.572Z,975.24
2018-12-22T16:11:49.743Z,975.24
2018-12-22T16:12:49.979Z,975.26
2018-12-22T16:14:43.064Z,975.32
2018-12-22T16:15:43.302Z,975.24
2018-12-22T16:17:47.472Z,975.29
2018-12-22T16:18:47.708Z,975.29
2018-12-22T16:20:51.862Z,975.27
2018-12-22T16:21:52.099Z,975.26
2018-12-22T16:23:56.281Z,975.36
2018-12-22T16:24:56.517Z,975.32
2018-12-22T16:27:00.685Z,975.40
2018-12-22T16:28:00.928Z,975.40
2018-12-22T16:30:05.073Z,975.44
2018-12-22T16:31:05.308Z,975.46
2018-12-22T16:33:09.479Z,975.42
2018-12-22T16:34:09.714Z,975.37
2018-12-22T16:36:13.883Z,975.28
2018-12-22T16:37:14.122Z,975.30
2018-12-22T16:39:18.274Z,975.34
2018-12-22T16:40:18.509Z,975.38
2018-12-22T16:42:22.684Z,975.51
2018-12-22T16:43:22.923Z,975.44
2018-12-22T16:45:27.071Z,975.42
2018-12-22T16:46:27.309Z,975.40
2018-12-22T16:48:31.485Z,975.47
2018-12-22T16:49:31.721Z,975.41
2018-12-22T16:51:35.966Z,975.49
2018-12-22T16:52:36.129Z,975.62
2018-12-22T16:54:29.214Z,975.61
2018-12-22T16:55:29.453Z,975.59
2018-12-22T16:57:33.626Z,975.57
2018-12-22T16:58:33.865Z,975.41
2018-12-22T17:00:38.019Z,975.58
2018-12-22T17:01:38.258Z,975.54
2018-12-22T17:03:42.430Z,975.64
2018-12-22T17:04:42.670Z,975.62
2018-12-22T17:06:46.844Z,975.63
2018-12-22T17:07:47.079Z,975.81
2018-12-22T17:09:51.230Z,975.74
2018-12-22T17:10:51.466Z,975.78
2018-12-22T17:12:55.641Z,975.71
2018-12-22T17:13:55.876Z,975.70
2018-12-22T17:16:00.023Z,975.62
2018-12-22T17:17:00.256Z,975.71
2018-12-22T17:19:04.429Z,975.77
2018-12-22T17:20:04.659Z,975.72
2018-12-22T17:22:08.827Z,975.78
2018-12-22T17:23:09.062Z,975.80
2018-12-22T17:25:13.212Z,975.81
2018-12-22T17:26:13.448Z,975.83
2018-12-22T17:28:17.617Z,975.89
2018-12-22T17:29:17.851Z,975.83
2018-12-22T17:31:21.997Z,975.81
2018-12-22T17:32:22.234Z,975.84
2018-12-22T17:34:15.334Z,975.90
2018-12-22T17:35:15.573Z,975.92
2018-12-22T17:37:19.747Z,975.98
2018-12-22T17:38:20.832Z,975.91
2018-12-22T17:40:24.133Z,976.01
2018-12-22T17:41:24.365Z,976.06
2018-12-22T17:43:28.537Z,976.07
2018-12-22T17:44:28.773Z,976.14
2018-12-22T17:46:32.921Z,976.16
2018-12-22T17:47:33.156Z,976.18
2018-12-22T17:49:37.327Z,976.20
2018-12-22T17:50:37.561Z,976.22
2018-12-22T17:52:41.736Z,976.32
2018-12-22T17:53:41.972Z,976.24
2018-12-22T17:55:46.118Z,976.27
2018-12-22T17:56:46.357Z,976.39
2018-12-22T17:58:50.523Z,976.27
2018-12-22T17:59:51.156Z,976.28
2018-12-22T18:01:54.902Z,976.28
2018-12-22T18:02:55.139Z,976.32
2018-12-22T18:04:48.233Z,976.25
2018-12-22T18:05:48.470Z,976.32
2018-12-22T18:07:52.641Z,976.41
2018-12-22T18:08:52.876Z,976.30
2018-12-22T18:10:57.026Z,976.31
2018-12-22T18:11:57.260Z,976.32
2018-12-22T18:14:01.434Z,976.35
2018-12-22T18:15:01.671Z,976.35
2018-12-22T18:17:05.851Z,976.41
2018-12-22T18:18:06.119Z,976.38
2018-12-22T18:20:10.292Z,976.41
2018-12-22T18:21:10.584Z,976.38
2018-12-22T18:23:14.756Z,976.42
2018-12-22T18:24:14.992Z,976.46
2018-12-22T18:26:19.140Z,976.52
2018-12-22T18:27:19.377Z,976.46
2018-12-22T18:29:23.542Z,976.51
2018-12-22T18:30:23.777Z,976.50
2018-12-22T18:32:27.923Z,976.51
2018-12-22T18:33:35.804Z,976.55
2018-12-22T18:35:32.334Z,976.61
2018-12-22T18:36:32.570Z,976.70
2018-12-22T18:38:36.737Z,976.64
2018-12-22T18:39:36.974Z,976.73
2018-12-22T18:41:41.116Z,976.76
2018-12-22T18:42:41.354Z,976.83
2018-12-22T18:44:34.470Z,976.82
2018-12-22T18:45:34.705Z,976.85
2018-12-22T18:47:38.850Z,976.78
2018-12-22T18:48:39.088Z,976.88
2018-12-22T18:50:43.256Z,976.91
2018-12-22T18:51:43.492Z,976.88
2018-12-22T18:53:47.722Z,976.89
2018-12-22T18:54:47.960Z,976.96
2018-12-22T18:56:52.124Z,976.95
2018-12-22T18:57:52.357Z,976.96
2018-12-22T18:59:56.588Z,977.01
2018-12-22T19:00:56.869Z,976.99
2018-12-22T19:03:01.019Z,977.01
2018-12-22T19:04:01.254Z,977.03